Time;durP1;ratioP1;P1;durP2;ratioP2;P2;SDS_P1;SDS_P2;PMS_P1;PMS_P2;Temp;Humidity;BMP_temperature;BMP_pressure;BME280_temperature;BME280_humidity;BME280_pressure;Samples;Min_cycle;Max_cycle;Signal;HPM_P1;HPM_P2
2022/07/24 00:01:16;;;;;;;3.10;2.80;;;;;;;13.63;100.00;101155.22;4994113;28;20705;-72
2022/07/24 00:03:43;;;;;;;3.67;3.20;;;;;;;13.74;100.00;101155.78;4978108;28;20224;-72
2022/07/24 00:06:09;;;;;;;3.67;2.97;;;;;;;13.77;100.00;101154.81;4998994;28;20208;-72
2022/07/24 00:08:36;;;;;;;3.80;3.37;;;;;;;13.76;100.00;101159.19;5007521;28;20228;-72
2022/07/24 00:11:03;;;;;;;4.70;3.50;;;;;;;13.59;100.00;101162.31;5016052;23;20249;-73
2022/07/24 00:13:30;;;;;;;6.03;3.00;;;;;;;13.58;100.00;101167.63;5004840;28;20498;-73
2022/07/24 00:15:56;;;;;;;4.50;3.50;;;;;;;13.42;100.00;101170.69;5008114;28;20223;-73
2022/07/24 00:18:22;;;;;;;4.40;3.17;;;;;;;13.51;100.00;101164.34;5003622;28;20200;-73
2022/07/24 00:20:49;;;;;;;4.07;2.83;;;;;;;13.47;100.00;101169.69;5008283;28;20218;-74
2022/07/24 00:23:15;;;;;;;4.80;2.97;;;;;;;13.49;100.00;101167.88;5006880;28;20220;-73
2022/07/24 00:25:42;;;;;;;3.23;2.73;;;;;;;13.32;100.00;101165.78;5014415;23;20612;-72
2022/07/24 00:28:09;;;;;;;3.23;2.90;;;;;;;13.28;100.00;101167.59;5010044;28;20206;-72
2022/07/24 00:30:37;;;;;;;3.70;2.77;;;;;;;13.31;100.00;101171.88;5014834;28;20566;-72
2022/07/24 00:33:04;;;;;;;3.30;2.90;;;;;;;13.31;100.00;101170.13;5004898;28;20275;-72
2022/07/24 00:35:31;;;;;;;3.30;3.00;;;;;;;13.14;100.00;101173.22;4990282;28;20223;-72
2022/07/24 00:37:59;;;;;;;6.20;2.90;;;;;;;13.28;100.00;101170.22;4988642;28;20209;-72
2022/07/24 00:40:26;;;;;;;4.33;3.27;;;;;;;13.32;100.00;101169.25;4983758;28;20224;-72
2022/07/24 00:42:54;;;;;;;3.00;2.70;;;;;;;13.12;100.00;101176.75;4988442;28;20206;-72
2022/07/24 00:45:23;;;;;;;3.50;2.87;;;;;;;13.07;100.00;101171.69;4984937;28;20229;-72
2022/07/24 00:47:50;;;;;;;3.43;2.60;;;;;;;13.02;100.00;101179.66;4987461;28;20213;-73
2022/07/24 00:50:16;;;;;;;3.93;2.70;;;;;;;13.10;100.00;101174.19;4992789;28;20193;-72
2022/07/24 00:52:43;;;;;;;3.43;2.80;;;;;;;13.08;100.00;101182.06;4988199;28;20222;-72
2022/07/24 00:55:10;;;;;;;3.20;2.70;;;;;;;12.92;100.00;101180.78;4987382;28;20236;-72
2022/07/24 00:57:37;;;;;;;4.07;3.00;;;;;;;12.94;100.00;101191.22;4985772;28;20214;-72
2022/07/24 01:00:06;;;;;;;3.30;2.47;;;;;;;12.94;100.00;101186.00;4986793;28;20206;-72
2022/07/24 01:02:33;;;;;;;3.10;2.60;;;;;;;12.96;100.00;101189.41;4989262;28;20204;-72
2022/07/24 01:05:00;;;;;;;3.90;2.70;;;;;;;13.00;100.00;101183.22;4983752;28;20520;-72
2022/07/24 01:07:26;;;;;;;3.20;2.43;;;;;;;12.90;100.00;101181.75;4991311;28;20204;-72
2022/07/24 01:09:53;;;;;;;3.03;2.73;;;;;;;13.20;100.00;101177.41;4981463;28;20384;-72
2022/07/24 01:12:20;;;;;;;3.43;2.70;;;;;;;13.01;100.00;101177.91;4983914;28;20699;-73
2022/07/24 01:14:46;;;;;;;3.20;2.67;;;;;;;13.18;100.00;101179.22;4987837;28;20577;-72
2022/07/24 01:17:12;;;;;;;4.10;2.37;;;;;;;13.01;100.00;101184.91;4982341;28;20617;-72
2022/07/24 01:19:40;;;;;;;4.43;2.80;;;;;;;13.03;100.00;101193.59;4982201;28;20684;-72
2022/07/24 01:22:08;;;;;;;4.23;3.00;;;;;;;13.01;100.00;101191.00;4987283;28;20205;-72
2022/07/24 01:24:34;;;;;;;3.93;2.23;;;;;;;12.76;100.00;101189.97;4987902;28;20229;-72
2022/07/24 01:27:01;;;;;;;5.10;3.10;;;;;;;12.68;100.00;101198.00;4982321;28;20206;-72
2022/07/24 01:29:27;;;;;;;3.13;2.63;;;;;;;12.60;100.00;101195.59;4988562;28;20203;-72
2022/07/24 01:31:53;;;;;;;5.00;2.93;;;;;;;12.49;100.00;101195.00;4987169;28;20221;-72
2022/07/24 01:34:20;;;;;;;3.70;2.93;;;;;;;12.48;100.00;101198.50;4985687;28;20664;-72
2022/07/24 01:36:46;;;;;;;3.47;2.63;;;;;;;12.58;100.00;101194.78;4986639;28;20294;-72
2022/07/24 01:39:14;;;;;;;3.10;2.50;;;;;;;12.74;100.00;101191.75;4983284;28;20202;-72
2022/07/24 01:41:40;;;;;;;2.60;2.40;;;;;;;12.83;100.00;101196.75;4988821;28;20592;-72
2022/07/24 01:44:06;;;;;;;2.77;2.50;;;;;;;12.68;100.00;101198.88;4987692;28;20203;-72
2022/07/24 01:46:33;;;;;;;4.40;2.70;;;;;;;12.79;100.00;101198.59;4992605;28;20208;-72
2022/07/24 01:48:59;;;;;;;3.53;2.67;;;;;;;12.82;100.00;101198.50;4991557;28;20206;-72
2022/07/24 01:51:25;;;;;;;3.87;2.80;;;;;;;12.70;100.00;101204.06;4991268;28;20202;-72
2022/07/24 01:53:52;;;;;;;5.87;2.57;;;;;;;12.54;100.00;101203.59;4988583;28;20760;-72
2022/07/24 01:56:19;;;;;;;4.97;2.90;;;;;;;12.69;100.00;101208.41;4985746;28;20215;-72
2022/07/24 01:58:46;;;;;;;3.70;2.83;;;;;;;12.65;100.00;101211.16;4987121;28;20206;-72
2022/07/24 02:01:12;;;;;;;2.53;2.33;;;;;;;12.57;100.00;101220.97;4991515;28;20221;-72
2022/07/24 02:03:38;;;;;;;4.13;2.80;;;;;;;12.40;100.00;101216.13;4990497;28;20201;-72
2022/07/24 02:06:05;;;;;;;2.37;2.17;;;;;;;12.72;100.00;101217.97;4987675;28;20343;-72
2022/07/24 02:08:31;;;;;;;3.20;2.60;;;;;;;12.43;100.00;101216.06;4992444;28;20198;-72
2022/07/24 02:10:58;;;;;;;2.33;2.13;;;;;;;12.31;100.00;101215.47;4987830;28;20661;-72
2022/07/24 02:13:26;;;;;;;3.57;2.70;;;;;;;12.24;100.00;101213.03;4986509;28;20264;-72
2022/07/24 02:15:53;;;;;;;2.67;2.30;;;;;;;12.29;100.00;101224.25;4986023;28;20218;-72
2022/07/24 02:18:19;;;;;;;6.77;2.80;;;;;;;12.08;100.00;101228.22;4989330;28;20205;-72
2022/07/24 02:20:46;;;;;;;2.87;2.50;;;;;;;12.44;100.00;101234.34;4993828;28;20209;-72
2022/07/24 02:23:17;;;;;;;2.70;2.50;;;;;;;12.30;100.00;101221.59;4988521;28;20276;-72
2022/07/24 02:25:44;;;;;;;3.80;2.93;;;;;;;12.30;100.00;101231.19;4983052;28;20646;-72
2022/07/24 02:28:10;;;;;;;2.83;2.57;;;;;;;12.27;100.00;101228.66;4984332;28;20285;-72
2022/07/24 02:30:38;;;;;;;2.50;2.30;;;;;;;12.14;100.00;101222.84;4991720;28;20193;-72
2022/07/24 02:33:04;;;;;;;3.07;2.30;;;;;;;12.17;100.00;101233.25;4983358;28;20213;-72
2022/07/24 02:35:30;;;;;;;2.47;2.27;;;;;;;12.29;100.00;101235.56;4985835;28;20224;-72
2022/07/24 02:37:57;;;;;;;4.20;2.00;;;;;;;12.40;100.00;101239.66;4988783;28;20198;-72
2022/07/24 02:40:23;;;;;;;2.67;2.43;;;;;;;12.34;100.00;101232.84;4981397;28;20197;-72
2022/07/24 02:42:49;;;;;;;2.87;2.50;;;;;;;12.27;100.00;101242.56;4984546;28;20213;-72
2022/07/24 02:45:17;;;;;;;3.07;2.27;;;;;;;12.40;100.00;101239.66;4987491;28;20227;-72
2022/07/24 02:47:49;;;;;;;3.07;2.57;;;;;;;12.34;100.00;101227.59;4985136;28;20288;-72
2022/07/24 02:50:16;;;;;;;3.20;2.40;;;;;;;12.28;100.00;101239.06;4987748;28;20209;-72
2022/07/24 02:52:43;;;;;;;3.10;2.60;;;;;;;12.44;100.00;101234.34;4982656;28;20220;-72
2022/07/24 02:55:10;;;;;;;2.53;2.33;;;;;;;12.34;100.00;101247.69;4987334;28;20585;-72
2022/07/24 02:57:36;;;;;;;3.73;2.30;;;;;;;12.31;100.00;101240.75;4985581;28;20744;-72
2022/07/24 03:00:06;;;;;;;2.77;2.47;;;;;;;12.38;100.00;101247.53;4985549;28;20643;-72
2022/07/24 03:02:32;;;;;;;2.80;2.40;;;;;;;12.22;100.00;101243.56;4990074;28;20205;-72
2022/07/24 03:05:00;;;;;;;2.37;2.10;;;;;;;12.03;100.00;101248.34;4987305;28;20225;-72
2022/07/24 03:07:27;;;;;;;2.20;2.00;;;;;;;11.91;100.00;101250.38;4991557;28;20828;-72
2022/07/24 03:09:53;;;;;;;2.30;2.00;;;;;;;11.84;100.00;101253.13;4988036;28;20647;-72
2022/07/24 03:12:20;;;;;;;7.27;2.50;;;;;;;11.85;100.00;101254.81;4988950;28;20194;-72
2022/07/24 03:14:46;;;;;;;2.47;2.27;;;;;;;11.86;100.00;101265.25;4986700;28;20228;-72
2022/07/24 03:17:13;;;;;;;2.13;1.80;;;;;;;11.74;100.00;101260.28;4984298;28;20210;-72
2022/07/24 03:19:39;;;;;;;4.07;2.20;;;;;;;11.69;100.00;101260.34;4987221;28;20600;-73
2022/07/24 03:22:07;;;;;;;2.83;2.10;;;;;;;11.64;100.00;101253.50;4987693;28;20210;-73
2022/07/24 03:24:33;;;;;;;3.23;1.97;;;;;;;11.56;100.00;101251.91;4983443;28;20221;-72
2022/07/24 03:27:00;;;;;;;2.13;1.93;;;;;;;11.56;100.00;101261.53;4986864;28;20709;-72
2022/07/24 03:29:31;;;;;;;2.10;1.90;;;;;;;11.66;100.00;101267.41;4990490;28;20205;-72
2022/07/24 03:31:57;;;;;;;3.93;2.07;;;;;;;11.62;100.00;101260.53;4994841;28;20200;-72
2022/07/24 03:34:23;;;;;;;2.00;1.77;;;;;;;11.73;100.00;101258.53;4983770;28;20228;-73
2022/07/24 03:36:50;;;;;;;2.57;1.90;;;;;;;11.86;100.00;101253.94;4986523;28;20201;-72
2022/07/24 03:39:18;;;;;;;7.53;2.17;;;;;;;11.77;100.00;101259.34;4983083;28;20193;-72
2022/07/24 03:41:44;;;;;;;2.63;2.27;;;;;;;11.65;100.00;101260.47;4989582;28;20205;-73
2022/07/24 03:44:10;;;;;;;3.43;2.40;;;;;;;11.64;100.00;101264.81;4985933;28;20211;-72
2022/07/24 03:46:37;;;;;;;5.33;2.40;;;;;;;11.84;100.00;101261.81;4986282;28;20217;-73
2022/07/24 03:49:04;;;;;;;1.97;1.70;;;;;;;11.83;100.00;101264.44;4986895;28;20713;-73
2022/07/24 03:51:30;;;;;;;2.93;2.20;;;;;;;12.02;100.00;101267.56;4990901;28;20197;-72
2022/07/24 03:53:56;;;;;;;2.63;2.30;;;;;;;11.97;100.00;101259.81;4984679;28;20517;-72
2022/07/24 03:56:24;;;;;;;2.80;2.20;;;;;;;11.99;100.00;101265.84;4984418;28;20227;-72
2022/07/24 03:58:50;;;;;;;2.50;2.03;;;;;;;12.02;100.00;101271.03;4981865;28;20217;-72
2022/07/24 04:01:17;;;;;;;3.07;2.37;;;;;;;11.90;100.00;101266.91;4989473;28;20205;-72
2022/07/24 04:03:43;;;;;;;3.00;2.13;;;;;;;12.07;100.00;101271.78;4984775;28;20197;-72
2022/07/24 04:06:10;;;;;;;8.30;3.07;;;;;;;11.91;100.00;101271.25;4995862;28;20267;-72
2022/07/24 04:08:36;;;;;;;2.50;2.30;;;;;;;12.07;100.00;101269.19;4987461;28;20209;-72
2022/07/24 04:11:03;;;;;;;2.80;2.47;;;;;;;12.37;100.00;101265.91;4987743;28;20213;-73
2022/07/24 04:13:31;;;;;;;2.73;2.23;;;;;;;12.40;100.00;101266.69;4984646;28;20208;-73
2022/07/24 04:15:58;;;;;;;3.33;2.53;;;;;;;12.31;100.00;101274.72;4990329;28;20213;-73
2022/07/24 04:18:24;;;;;;;3.87;2.60;;;;;;;12.49;100.00;101278.69;4984573;28;20197;-73
2022/07/24 04:20:51;;;;;;;2.63;2.30;;;;;;;12.75;100.00;101274.56;4984647;28;20236;-73
2022/07/24 04:23:17;;;;;;;4.67;3.07;;;;;;;12.81;100.00;101272.66;4986716;28;20201;-72
2022/07/24 04:25:44;;;;;;;2.93;2.30;;;;;;;13.08;100.00;101275.47;4991144;28;20225;-73
2022/07/24 04:28:11;;;;;;;3.07;2.57;;;;;;;13.41;100.00;101273.75;4989390;28;20203;-73
2022/07/24 04:30:38;;;;;;;3.20;2.77;;;;;;;13.49;100.00;101276.16;4987662;28;20203;-72
2022/07/24 04:33:05;;;;;;;2.87;2.60;;;;;;;13.80;100.00;101277.91;4987701;28;20201;-73
2022/07/24 04:35:31;;;;;;;2.50;2.30;;;;;;;14.02;100.00;101273.75;4986647;28;20213;-73
2022/07/24 04:37:58;;;;;;;2.27;2.00;;;;;;;13.97;100.00;101280.88;4985700;28;20256;-73
2022/07/24 04:40:24;;;;;;;2.37;2.17;;;;;;;13.98;100.00;101280.00;4986415;28;20215;-73
2022/07/24 04:42:50;;;;;;;3.87;2.57;;;;;;;13.98;100.00;101279.09;4985590;28;20210;-73
2022/07/24 04:45:17;;;;;;;2.60;2.40;;;;;;;13.94;100.00;101282.75;4986190;28;20236;-73
2022/07/24 04:47:44;;;;;;;2.90;2.47;;;;;;;14.02;100.00;101280.75;4985642;28;20225;-72
2022/07/24 04:50:11;;;;;;;2.67;2.37;;;;;;;14.13;100.00;101285.66;4990644;28;20697;-72
2022/07/24 04:52:37;;;;;;;2.40;2.20;;;;;;;14.22;100.00;101281.91;4989845;28;20211;-73
2022/07/24 04:55:05;;;;;;;2.10;1.90;;;;;;;14.29;100.00;101288.69;4980027;28;20226;-72
2022/07/24 04:57:31;;;;;;;3.00;2.50;;;;;;;14.52;100.00;101280.94;4991277;28;20199;-72
2022/07/24 04:59:58;;;;;;;2.97;2.40;;;;;;;14.72;100.00;101285.56;4989955;28;20216;-73
2022/07/24 05:02:24;;;;;;;2.93;2.30;;;;;;;14.81;100.00;101288.78;4985783;28;20203;-72
2022/07/24 05:04:52;;;;;;;2.60;2.10;;;;;;;14.83;100.00;101285.22;4977412;28;20217;-73
2022/07/24 05:07:18;;;;;;;1.93;1.80;;;;;;;14.86;100.00;101287.75;4987944;28;20228;-72
2022/07/24 05:09:44;;;;;;;2.13;1.93;;;;;;;15.00;100.00;101286.41;4984119;28;20581;-73
2022/07/24 05:12:11;;;;;;;2.17;1.97;;;;;;;15.05;100.00;101295.00;4990681;28;20200;-72
2022/07/24 05:14:37;;;;;;;2.10;1.90;;;;;;;15.12;100.00;101292.09;4992318;28;20227;-72
2022/07/24 05:17:03;;;;;;;2.30;2.07;;;;;;;15.26;100.00;101298.63;4989958;28;20216;-72
2022/07/24 05:19:30;;;;;;;2.70;2.33;;;;;;;15.46;100.00;101295.28;4997143;28;20201;-72
2022/07/24 05:21:57;;;;;;;1.70;1.60;;;;;;;15.40;100.00;101299.00;4991680;28;20202;-72
2022/07/24 05:24:24;;;;;;;2.53;2.10;;;;;;;15.57;100.00;101297.56;4988661;28;20220;-72
2022/07/24 05:26:51;;;;;;;3.53;1.90;;;;;;;15.64;100.00;101299.06;4989578;28;20244;-73
2022/07/24 05:29:17;;;;;;;1.80;1.70;;;;;;;15.63;100.00;101306.06;4994785;28;20565;-72
2022/07/24 05:31:44;;;;;;;1.83;1.60;;;;;;;15.60;100.00;101306.19;4984679;28;20205;-72
2022/07/24 05:34:10;;;;;;;1.50;1.37;;;;;;;15.77;100.00;101302.97;4987801;28;20573;-72
2022/07/24 05:36:37;;;;;;;2.27;1.50;;;;;;;15.84;100.00;101304.44;4990382;28;20239;-72
2022/07/24 05:39:05;;;;;;;2.33;1.50;;;;;;;15.82;100.00;101315.94;4992474;28;20380;-73
2022/07/24 05:41:31;;;;;;;1.77;1.50;;;;;;;15.87;100.00;101311.38;4987480;28;20203;-73
2022/07/24 05:43:58;;;;;;;1.53;1.40;;;;;;;15.94;100.00;101314.63;4992394;28;20207;-73
2022/07/24 05:46:24;;;;;;;1.50;1.40;;;;;;;15.98;98.91;101319.72;4982338;28;20246;-73
2022/07/24 05:48:50;;;;;;;1.30;1.20;;;;;;;15.95;93.67;101317.19;4985945;28;20204;-72
2022/07/24 05:51:17;;;;;;;1.33;1.00;;;;;;;15.96;95.39;101316.28;4990785;28;20547;-73
2022/07/24 05:53:43;;;;;;;1.07;0.97;;;;;;;16.07;97.46;101323.75;4984625;28;20702;-72
2022/07/24 05:56:11;;;;;;;1.43;1.27;;;;;;;16.18;98.83;101324.22;4987342;28;20220;-72
2022/07/24 05:58:37;;;;;;;1.10;1.00;;;;;;;16.22;94.11;101320.56;4993058;28;20208;-73
2022/07/24 06:01:04;;;;;;;1.67;1.30;;;;;;;16.41;97.96;101323.31;4985185;28;20211;-72
2022/07/24 06:03:30;;;;;;;1.23;1.13;;;;;;;16.36;93.85;101327.03;4992740;28;20266;-72
2022/07/24 06:05:56;;;;;;;1.30;1.20;;;;;;;16.41;93.67;101318.06;4984619;28;20224;-73
2022/07/24 06:08:23;;;;;;;1.30;1.20;;;;;;;16.55;94.97;101327.16;4989839;28;20209;-72
2022/07/24 06:10:49;;;;;;;1.50;1.20;;;;;;;16.50;89.68;101330.00;4983039;28;20204;-72
2022/07/24 06:13:17;;;;;;;1.10;1.00;;;;;;;16.63;89.41;101327.72;4988549;28;20201;-72
2022/07/24 06:15:43;;;;;;;1.97;1.17;;;;;;;16.78;91.75;101332.38;4988941;28;20716;-73
2022/07/24 06:18:10;;;;;;;1.23;1.13;;;;;;;16.79;87.23;101331.44;4983851;28;20558;-72
2022/07/24 06:20:36;;;;;;;1.33;1.23;;;;;;;16.93;89.50;101336.19;4982542;28;20213;-73
2022/07/24 06:23:02;;;;;;;1.43;1.10;;;;;;;17.09;92.61;101332.91;4991198;28;20201;-72
2022/07/24 06:25:29;;;;;;;0.80;0.80;;;;;;;17.13;87.82;101338.00;4984576;28;20237;-73
2022/07/24 06:27:55;;;;;;;0.93;0.83;;;;;;;17.16;87.58;101332.56;4984866;28;20248;-72
2022/07/24 06:30:26;;;;;;;1.43;1.07;;;;;;;17.33;89.35;101333.66;4984343;28;20239;-72
2022/07/24 06:32:54;;;;;;;0.83;0.80;;;;;;;17.39;83.91;101338.63;4986012;28;20209;-73
2022/07/24 06:35:20;;;;;;;0.73;0.70;;;;;;;17.52;85.65;101339.84;4984868;28;20523;-73
2022/07/24 06:37:47;;;;;;;0.90;0.80;;;;;;;17.66;86.34;101340.97;4989662;28;20203;-72
2022/07/24 06:40:14;;;;;;;1.03;0.80;;;;;;;17.73;84.06;101345.94;4986089;28;20237;-73
2022/07/24 06:42:41;;;;;;;3.60;0.77;;;;;;;17.89;81.13;101354.03;4986520;28;20201;-73
2022/07/24 06:45:08;;;;;;;0.80;0.80;;;;;;;17.96;80.34;101346.72;4986171;28;20233;-73
2022/07/24 06:47:35;;;;;;;1.23;0.70;;;;;;;18.04;79.61;101336.66;4987748;28;20217;-73
2022/07/24 06:50:02;;;;;;;2.27;0.87;;;;;;;18.14;79.93;101339.72;4986898;28;20209;-73
2022/07/24 06:52:28;;;;;;;1.10;0.93;;;;;;;18.15;79.03;101338.78;4986695;28;20202;-73
2022/07/24 06:54:55;;;;;;;2.10;0.60;;;;;;;18.23;78.32;101343.72;4985254;28;20722;-73
2022/07/24 06:57:21;;;;;;;0.87;0.70;;;;;;;18.28;77.39;101333.81;4983230;28;20781;-73
2022/07/24 06:59:47;;;;;;;0.60;0.60;;;;;;;18.42;77.45;101338.44;4985619;28;20532;-72
2022/07/24 07:02:14;;;;;;;0.50;0.50;;;;;;;18.50;76.24;101333.63;4986670;28;20753;-73
2022/07/24 07:04:41;;;;;;;1.00;0.70;;;;;;;18.49;71.49;101353.06;4975264;28;20263;-73
2022/07/24 07:07:08;;;;;;;0.50;0.50;;;;;;;18.61;76.36;101344.53;4987098;28;20209;-73
2022/07/24 07:09:35;;;;;;;2.00;0.80;;;;;;;18.69;73.25;101346.78;4985870;28;20227;-72
2022/07/24 07:12:01;;;;;;;0.70;0.70;;;;;;;18.82;72.25;101347.94;4986527;28;20206;-73
2022/07/24 07:14:28;;;;;;;0.67;0.60;;;;;;;18.90;72.28;101353.69;4991975;28;20216;-72
2022/07/24 07:16:54;;;;;;;0.60;0.60;;;;;;;19.00;72.23;101353.25;4987543;28;20197;-72
2022/07/24 07:19:20;;;;;;;0.50;0.50;;;;;;;19.11;72.51;101351.75;4991342;28;20189;-72
2022/07/24 07:21:48;;;;;;;0.47;0.47;;;;;;;19.25;72.89;101348.41;4988855;28;20473;-72
2022/07/24 07:24:15;;;;;;;0.67;0.67;;;;;;;19.35;69.78;101358.53;4987789;28;20205;-73
2022/07/24 07:26:41;;;;;;;0.70;0.57;;;;;;;19.49;70.23;101353.41;4991315;28;20221;-73
2022/07/24 07:29:07;;;;;;;1.33;0.60;;;;;;;19.50;69.20;101344.50;4986261;28;20189;-73
2022/07/24 07:31:34;;;;;;;1.80;0.57;;;;;;;19.56;68.48;101343.31;4993440;28;20240;-73
2022/07/24 07:34:00;;;;;;;1.03;0.57;;;;;;;19.61;66.59;101339.53;4985421;28;20688;-72
2022/07/24 07:36:27;;;;;;;0.60;0.60;;;;;;;19.79;65.18;101348.31;4981137;28;20401;-73
2022/07/24 07:38:57;;;;;;;1.03;0.63;;;;;;;19.66;62.76;101345.44;4993489;28;20417;-73
2022/07/24 07:41:24;;;;;;;0.80;0.80;;;;;;;19.85;66.55;101333.88;4990261;28;20685;-73
2022/07/24 07:43:50;;;;;;;0.67;0.67;;;;;;;19.93;63.36;101342.28;4985781;28;20205;-73
2022/07/24 07:46:16;;;;;;;0.50;0.50;;;;;;;20.08;65.25;101329.97;4988533;28;20229;-73
2022/07/24 07:48:43;;;;;;;0.50;0.50;;;;;;;20.11;60.39;101340.41;4987255;28;20457;-72
2022/07/24 07:51:09;;;;;;;0.60;0.60;;;;;;;20.23;60.06;101346.84;4986878;28;20669;-73
2022/07/24 07:53:36;;;;;;;0.70;0.70;;;;;;;20.31;60.24;101338.44;4987525;28;20201;-73
2022/07/24 07:56:05;;;;;;;0.53;0.53;;;;;;;20.38;60.02;101347.75;4985759;28;20441;-72
2022/07/24 07:58:31;;;;;;;1.43;0.70;;;;;;;20.46;59.36;101348.19;4981265;28;20200;-73
2022/07/24 08:00:58;;;;;;;0.80;0.50;;;;;;;20.61;62.38;101343.81;4989763;28;20205;-73
2022/07/24 08:03:24;;;;;;;0.53;0.53;;;;;;;20.76;58.72;101356.22;4987359;28;20201;-73
2022/07/24 08:05:51;;;;;;;0.40;0.40;;;;;;;20.80;56.96;101356.88;4989559;28;20224;-73
2022/07/24 08:08:17;;;;;;;0.40;0.40;;;;;;;20.87;57.58;101352.09;4989774;28;20236;-72
2022/07/24 08:10:44;;;;;;;0.60;0.50;;;;;;;20.84;56.51;101355.75;4984103;28;20213;-73
2022/07/24 08:13:12;;;;;;;1.30;0.60;;;;;;;20.92;55.61;101355.34;4986254;28;20205;-73
2022/07/24 08:15:38;;;;;;;0.60;0.50;;;;;;;20.88;55.07;101348.50;4985997;28;20229;-72
2022/07/24 08:18:04;;;;;;;0.73;0.60;;;;;;;21.03;55.42;101352.06;4979285;28;20245;-72
2022/07/24 08:20:31;;;;;;;1.23;0.40;;;;;;;21.09;54.77;101349.03;4977569;28;20197;-72
2022/07/24 08:22:57;;;;;;;0.37;0.37;;;;;;;21.12;54.46;101357.66;4985117;28;20670;-73
2022/07/24 08:25:24;;;;;;;0.50;0.50;;;;;;;21.17;55.26;101352.09;4985815;28;20590;-72
2022/07/24 08:27:50;;;;;;;0.57;0.43;;;;;;;21.26;57.59;101351.53;4982453;28;20243;-72
2022/07/24 08:30:18;;;;;;;0.60;0.60;;;;;;;21.37;56.19;101350.88;4978497;28;20465;-73
2022/07/24 08:32:45;;;;;;;0.70;0.70;;;;;;;21.51;54.32;101353.63;4987892;28;20197;-72
2022/07/24 08:35:12;;;;;;;0.63;0.47;;;;;;;21.64;55.47;101350.22;4985038;28;20220;-73
2022/07/24 08:37:39;;;;;;;0.50;0.50;;;;;;;21.70;55.78;101339.22;4971094;28;20209;-70
2022/07/24 08:40:08;;;;;;;0.47;0.47;;;;;;;21.84;52.80;101348.97;4974111;28;20213;-72
2022/07/24 08:42:35;;;;;;;1.37;0.50;;;;;;;22.00;54.80;101336.44;4977444;28;20424;-72
2022/07/24 08:45:02;;;;;;;0.57;0.57;;;;;;;22.03;52.07;101344.22;4979467;28;20217;-72
2022/07/24 08:47:31;;;;;;;0.40;0.40;;;;;;;22.01;53.63;101340.81;4988906;28;20717;-72
2022/07/24 08:49:59;;;;;;;0.50;0.50;;;;;;;22.11;50.80;101338.44;4985654;28;20193;-72
2022/07/24 08:52:26;;;;;;;0.97;0.57;;;;;;;22.22;50.84;101341.25;4987861;28;20200;-72
2022/07/24 08:54:54;;;;;;;0.60;0.60;;;;;;;22.30;51.43;101339.00;4988043;28;20244;-72
2022/07/24 08:57:22;;;;;;;0.40;0.40;;;;;;;22.39;50.44;101339.34;4983994;28;20204;-72
2022/07/24 08:59:48;;;;;;;0.50;0.50;;;;;;;22.46;49.67;101343.28;4981201;28;20197;-72
2022/07/24 09:02:15;;;;;;;0.83;0.50;;;;;;;22.43;49.35;101340.88;4986032;28;20209;-73
2022/07/24 09:04:44;;;;;;;0.30;0.30;;;;;;;22.46;49.30;101328.22;4990744;28;20236;-72
2022/07/24 09:07:12;;;;;;;0.60;0.40;;;;;;;22.63;51.05;101327.09;4985678;28;20877;-72
2022/07/24 09:09:40;;;;;;;1.20;0.60;;;;;;;22.72;49.68;101330.13;4984319;28;20843;-72
2022/07/24 09:12:10;;;;;;;0.50;0.50;;;;;;;22.87;47.93;101335.25;4983163;28;20401;-72
2022/07/24 09:14:40;;;;;;;0.70;0.70;;;;;;;22.85;49.48;101329.19;4981785;28;20315;-72
2022/07/24 09:17:09;;;;;;;0.50;0.40;;;;;;;23.00;47.47;101329.97;4984314;28;20213;-72
2022/07/24 09:19:49;;;;;;;0.43;0.43;;;;;;;23.07;46.84;101333.09;4986147;28;20193;-72
2022/07/24 09:22:34;;;;;;;0.80;0.55;;;;;;;23.17;47.18;101331.53;4978575;28;21019;-72
2022/07/24 09:25:11;;;;;;;0.57;0.50;;;;;;;23.17;48.45;101320.03;4985151;28;20379;-72
2022/07/24 09:27:39;;;;;;;0.50;0.50;;;;;;;23.22;45.27;101325.91;4980402;28;20759;-72
2022/07/24 09:30:07;;;;;;;0.50;0.50;;;;;;;23.31;45.60;101316.44;4987118;28;20193;-72
2022/07/24 09:32:35;;;;;;;0.40;0.40;;;;;;;23.35;45.54;101316.09;4986438;28;20197;-72
2022/07/24 09:35:05;;;;;;;0.52;0.52;;;;;;;23.48;46.49;101315.25;4993108;28;20236;-72
2022/07/24 09:37:32;;;;;;;0.50;0.50;;;;;;;23.61;45.38;101308.97;4981870;28;20947;-72
2022/07/24 09:40:08;;;;;;;1.15;0.50;;;;;;;23.65;45.81;101303.44;4985612;28;20209;-72
2022/07/24 09:42:38;;;;;;;0.55;0.55;;;;;;;23.66;46.18;101311.31;4983380;28;20335;-72
2022/07/24 09:45:07;;;;;;;0.50;0.50;;;;;;;23.67;46.08;101305.00;4982693;28;20528;-72
2022/07/24 09:47:35;;;;;;;0.52;0.52;;;;;;;23.67;46.02;101305.00;4985907;28;20839;-72
2022/07/24 09:50:13;;;;;;;0.40;0.40;;;;;;;23.72;45.61;101302.88;4986184;28;20200;-72
2022/07/24 09:52:42;;;;;;;0.40;0.40;;;;;;;23.83;42.24;101303.97;4982808;28;20206;-72
2022/07/24 09:55:21;;;;;;;0.60;0.60;;;;;;;23.94;44.03;101296.03;4979721;28;20221;-72
2022/07/24 09:57:48;;;;;;;0.65;0.60;;;;;;;24.06;46.09;101299.63;4982238;28;20588;-72
2022/07/24 10:00:16;;;;;;;0.30;0.30;;;;;;;24.29;43.22;101297.97;4982540;28;20201;-72
2022/07/24 10:02:45;;;;;;;0.40;0.40;;;;;;;24.45;43.19;101301.22;4986769;28;20227;-72
2022/07/24 10:05:14;;;;;;;0.40;0.40;;;;;;;24.52;41.11;101304.25;4978614;28;20225;-73
2022/07/24 10:07:42;;;;;;;0.45;0.40;;;;;;;24.48;42.45;101297.44;4978823;28;20236;-73
2022/07/24 10:10:10;;;;;;;1.48;0.60;;;;;;;24.61;42.95;101302.75;4985352;28;20215;-72
2022/07/24 10:12:36;;;;;;;0.40;0.40;;;;;;;24.64;41.01;101305.19;4988614;28;20201;-72
2022/07/24 10:15:04;;;;;;;0.30;0.30;;;;;;;24.79;43.00;101303.19;4987705;28;20232;-73
2022/07/24 10:17:55;;;;;;;0.38;0.38;;;;;;;24.85;42.00;101311.56;4991356;28;20201;-73
2022/07/24 10:20:37;;;;;;;1.00;0.40;;;;;;;25.00;41.55;101304.22;4990158;28;20197;-72
2022/07/24 10:23:05;;;;;;;0.47;0.47;;;;;;;25.06;40.80;101309.06;4987079;28;20786;-73
2022/07/24 10:25:52;;;;;;;0.35;0.35;;;;;;;24.97;40.65;101315.13;4991360;28;20632;-72
2022/07/24 10:28:33;;;;;;;0.63;0.50;;;;;;;24.92;41.02;101309.28;4988725;28;20213;-72
2022/07/24 10:30:59;;;;;;;0.50;0.50;;;;;;;24.94;39.64;101310.00;4988131;28;20237;-72
2022/07/24 10:33:27;;;;;;;0.50;0.50;;;;;;;25.00;41.83;101298.03;4988170;28;20205;-72
2022/07/24 10:35:59;;;;;;;0.57;0.57;;;;;;;25.27;41.18;101300.41;4990926;28;20237;-72
2022/07/24 10:38:33;;;;;;;0.57;0.50;;;;;;;25.39;41.04;101302.13;4986957;28;20384;-72
2022/07/24 10:41:05;;;;;;;0.50;0.50;;;;;;;25.56;39.94;101298.16;4989601;28;20204;-72
2022/07/24 10:43:32;;;;;;;0.90;0.70;;;;;;;25.50;39.54;101296.81;4981739;28;20279;-72
2022/07/24 10:46:19;;;;;;;0.52;0.52;;;;;;;25.72;40.24;101288.94;4983182;28;20229;-72
2022/07/24 10:48:46;;;;;;;0.55;0.55;;;;;;;25.87;39.40;101301.91;4981003;28;20696;-72
2022/07/24 10:51:14;;;;;;;0.40;0.40;;;;;;;25.82;38.65;101298.75;4987095;28;20202;-72
2022/07/24 10:53:47;;;;;;;0.50;0.50;;;;;;;25.75;37.93;101302.88;4989043;28;20703;-72
2022/07/24 10:56:15;;;;;;;0.40;0.40;;;;;;;25.66;36.85;101303.59;4990048;28;20324;-72
2022/07/24 10:58:52;;;;;;;0.57;0.57;;;;;;;25.65;38.75;101301.91;4991836;28;20205;-72
2022/07/24 11:01:38;;;;;;;0.40;0.40;;;;;;;25.73;37.62;101299.44;4988840;28;20201;-72
2022/07/24 11:04:26;;;;;;;0.63;0.55;;;;;;;25.86;37.55;101291.34;4981238;28;20300;-72
2022/07/24 11:06:55;;;;;;;0.35;0.32;;;;;;;25.93;40.01;101284.53;4985230;28;20219;-73
2022/07/24 11:09:23;;;;;;;0.70;0.60;;;;;;;26.02;37.59;101288.31;4977844;28;20585;-72
2022/07/24 11:12:07;;;;;;;0.82;0.50;;;;;;;26.01;36.94;101278.56;4980686;28;20213;-72
2022/07/24 11:14:50;;;;;;;0.50;0.50;;;;;;;26.19;38.52;101276.22;4987084;28;20224;-72
2022/07/24 11:17:39;;;;;;;2.75;0.50;;;;;;;26.37;39.57;101264.03;4982981;28;20228;-73
2022/07/24 11:20:10;;;;;;;0.55;0.50;;;;;;;26.50;36.92;101266.50;4987141;28;20213;-72
2022/07/24 11:22:44;;;;;;;0.63;0.50;;;;;;;26.56;37.38;101274.03;4984159;28;20336;-73
2022/07/24 11:25:17;;;;;;;0.50;0.50;;;;;;;26.41;36.62;101272.63;4980536;28;20237;-72